Time;durP1;ratioP1;P1;durP2;ratioP2;P2;SDS_P1;SDS_P2;PMS_P1;PMS_P2;Temp;Humidity;BMP_temperature;BMP_pressure;BME280_temperature;BME280_humidity;BME280_pressure;Samples;Min_cycle;Max_cycle;Signal;HPM_P1;HPM_P2
2022/07/17 00:05:59;;;;;;;0.93;0.30;;;14.70;99.90;;;;;;20893696;28;20036;-82
2022/07/17 00:16:00;;;;;;;1.08;0.40;;;14.60;99.90;;;;;;20899159;28;20079;-81
2022/07/17 00:26:01;;;;;;;0.60;0.20;;;14.60;99.90;;;;;;20899232;28;20032;-82
2022/07/17 00:36:03;;;;;;;0.45;0.17;;;14.50;99.90;;;;;;20897304;28;20443;-82
2022/07/17 00:46:04;;;;;;;0.80;0.38;;;14.50;99.90;;;;;;20905211;28;20024;-82
2022/07/17 00:56:06;;;;;;;0.40;0.15;;;14.40;99.90;;;;;;20887210;28;20451;-82
2022/07/17 01:06:07;;;;;;;2.40;0.50;;;14.40;99.90;;;;;;20884450;28;20095;-84
2022/07/17 01:16:08;;;;;;;0.63;0.20;;;14.30;99.90;;;;;;20879273;28;20504;-84
2022/07/17 01:26:09;;;;;;;0.60;0.20;;;14.30;99.90;;;;;;20880898;28;20087;-84
2022/07/17 01:36:10;;;;;;;1.40;0.38;;;14.30;99.90;;;;;;20883461;28;20613;-84
2022/07/17 01:46:11;;;;;;;0.70;0.40;;;14.10;99.90;;;;;;20899294;28;20032;-84
2022/07/17 01:56:12;;;;;;;0.60;0.20;;;14.00;99.90;;;;;;20877185;28;20891;-84
2022/07/17 02:06:13;;;;;;;1.00;0.30;;;14.10;99.90;;;;;;20869681;28;20047;-84
2022/07/17 02:16:14;;;;;;;0.80;0.38;;;13.90;99.90;;;;;;20873950;28;20047;-84
2022/07/17 02:26:15;;;;;;;1.05;0.45;;;13.90;99.90;;;;;;20864268;28;20064;-84
2022/07/17 02:36:16;;;;;;;0.77;0.70;;;13.90;99.90;;;;;;21271746;22;20050;-81
2022/07/17 02:46:17;;;;;;;1.05;0.40;;;13.60;99.90;;;;;;20558298;28;20646;-81
2022/07/17 02:56:18;;;;;;;0.90;0.28;;;13.70;99.90;;;;;;20577436;28;20038;-81
2022/07/17 03:06:19;;;;;;;1.90;0.77;;;13.60;99.90;;;;;;20573330;28;20049;-81
2022/07/17 03:16:20;;;;;;;0.55;0.30;;;13.40;99.90;;;;;;20574099;28;20061;-81
2022/07/17 03:26:21;;;;;;;0.73;0.30;;;13.30;99.90;;;;;;20581539;28;20417;-82
2022/07/17 03:36:22;;;;;;;0.90;0.30;;;13.40;99.90;;;;;;20603482;28;20038;-81
2022/07/17 03:46:23;;;;;;;0.77;0.20;;;13.40;99.90;;;;;;20669971;28;20045;-81
2022/07/17 03:56:24;;;;;;;1.15;0.40;;;13.10;99.90;;;;;;20649500;28;20038;-81
2022/07/17 04:06:25;;;;;;;11.90;2.28;;;13.20;99.90;;;;;;20663464;28;20098;-81
2022/07/17 04:16:27;;;;;;;0.80;0.50;;;13.20;99.90;;;;;;20646050;28;20460;-81
2022/07/17 04:26:28;;;;;;;2.45;0.35;;;13.20;99.90;;;;;;20657386;28;20121;-81
2022/07/17 04:36:29;;;;;;;0.70;0.32;;;13.20;99.90;;;;;;20648886;28;20057;-81
2022/07/17 04:46:30;;;;;;;0.52;0.20;;;13.20;99.90;;;;;;20639024;28;20247;-81
2022/07/17 04:56:31;;;;;;;1.05;0.40;;;13.10;99.90;;;;;;20638995;28;22252;-81
2022/07/17 05:06:32;;;;;;;1.50;0.35;;;13.40;99.90;;;;;;20646910;28;20120;-81
2022/07/17 05:16:33;;;;;;;0.73;0.10;;;14.20;99.90;;;;;;20660094;28;20105;-81
2022/07/17 05:26:34;;;;;;;0.63;0.20;;;14.60;99.90;;;;;;20657949;28;20038;-81
2022/07/17 05:36:35;;;;;;;0.98;0.30;;;14.80;99.90;;;;;;20642696;28;20038;-81
2022/07/17 05:46:36;;;;;;;1.55;0.45;;;14.90;99.90;;;;;;20650162;28;20908;-81
2022/07/17 05:56:37;;;;;;;0.85;0.30;;;15.10;99.90;;;;;;20653624;28;20600;-81
2022/07/17 06:06:38;;;;;;;1.00;0.25;;;15.70;99.90;;;;;;20637077;28;20038;-81
2022/07/17 06:16:39;;;;;;;0.40;0.20;;;16.30;99.90;;;;;;20644573;28;20097;-81
2022/07/17 06:26:40;;;;;;;1.35;0.30;;;16.60;99.90;;;;;;20637996;28;20030;-80
2022/07/17 06:36:41;;;;;;;2.33;0.38;;;17.10;99.90;;;;;;20646915;28;20048;-78
2022/07/17 06:46:42;;;;;;;0.68;0.20;;;18.10;99.90;;;;;;20663561;28;20042;-78
2022/07/17 06:56:43;;;;;;;0.63;0.15;;;18.00;99.90;;;;;;20648195;28;20038;-81
2022/07/17 07:06:44;;;;;;;2.33;0.10;;;17.70;99.90;;;;;;20677283;28;20373;-79
2022/07/17 07:16:46;;;;;;;0.50;0.10;;;17.70;99.90;;;;;;20677919;28;20666;-80
2022/07/17 07:26:47;;;;;;;0.55;0.20;;;18.10;99.90;;;;;;20649312;28;20047;-80
2022/07/17 07:36:48;;;;;;;0.80;0.30;;;17.90;99.90;;;;;;20654040;28;20054;-80
2022/07/17 07:46:49;;;;;;;0.43;0.10;;;17.80;99.90;;;;;;20649685;28;20505;-80
2022/07/17 07:56:50;;;;;;;1.17;0.20;;;17.90;99.90;;;;;;20645862;28;20041;-79
2022/07/17 08:06:53;;;;;;;0.68;0.20;;;18.00;99.90;;;;;;20663844;28;20041;-79
2022/07/17 08:16:54;;;;;;;0.95;0.30;;;18.20;99.90;;;;;;20655545;28;20034;-79
2022/07/17 08:26:56;;;;;;;0.60;0.20;;;18.50;99.90;;;;;;20643206;28;20081;-79
2022/07/17 08:36:57;;;;;;;12.88;0.50;;;18.70;99.90;;;;;;20644403;28;20143;-79
2022/07/17 08:46:58;;;;;;;1.25;0.20;;;19.00;99.90;;;;;;20641962;28;20088;-79
2022/07/17 08:57:00;;;;;;;0.47;0.10;;;19.40;99.90;;;;;;20653424;28;20141;-79
2022/07/17 09:07:03;;;;;;;0.47;0.10;;;19.70;99.90;;;;;;20649149;28;20034;-79
2022/07/17 09:17:05;;;;;;;0.30;0.30;;;19.90;99.90;;;;;;20636207;28;20101;-79
2022/07/17 09:27:06;;;;;;;0.77;0.40;;;20.30;99.90;;;;;;20651979;28;20041;-78
2022/07/17 09:37:07;;;;;;;1.08;0.30;;;20.30;99.90;;;;;;20571980;28;20074;-78
2022/07/17 09:47:08;;;;;;;0.73;0.35;;;20.50;99.90;;;;;;20682592;28;20106;-78
2022/07/17 09:57:11;;;;;;;0.70;0.22;;;21.00;99.90;;;;;;20629128;28;20246;-78
2022/07/17 10:07:12;;;;;;;0.70;0.20;;;21.20;99.90;;;;;;20651096;28;20037;-78
2022/07/17 10:17:18;;;;;;;0.75;0.30;;;21.30;99.90;;;;;;20633801;28;20085;-78
2022/07/17 10:27:25;;;;;;;0.40;0.20;;;21.60;99.90;;;;;;20649783;28;22014;-77
2022/07/17 10:37:39;;;;;;;0.57;0.23;;;21.80;99.90;;;;;;20662010;28;20113;-78
2022/07/17 10:47:56;;;;;;;1.63;0.63;;;21.90;99.90;;;;;;20640173;28;20112;-78
2022/07/17 10:57:57;;;;;;;0.30;0.20;;;22.20;99.90;;;;;;20641793;28;20498;-78
2022/07/17 11:08:00;;;;;;;1.55;0.50;;;22.50;99.90;;;;;;20645777;28;20042;-78
2022/07/17 11:18:01;;;;;;;0.98;0.40;;;22.80;99.90;;;;;;20600298;28;20030;-81
2022/07/17 11:28:02;;;;;;;1.23;0.57;;;22.90;99.90;;;;;;20675908;28;20078;-79
2022/07/17 11:38:03;;;;;;;0.52;0.20;;;23.10;99.90;;;;;;20696142;28;20045;-79
2022/07/17 11:48:05;;;;;;;2.63;0.65;;;23.40;99.90;;;;;;20672433;28;20029;-78
2022/07/17 11:58:06;;;;;;;1.52;0.40;;;23.30;99.90;;;;;;20672040;28;20115;-78
2022/07/17 12:08:08;;;;;;;1.33;0.98;;;23.40;99.90;;;;;;20665990;28;20089;-79
2022/07/17 12:18:24;;;;;;;0.73;0.32;;;23.80;99.90;;;;;;20671458;28;20108;-79
2022/07/17 12:28:25;;;;;;;1.15;0.40;;;24.20;99.90;;;;;;20662041;28;20603;-78
2022/07/17 12:38:26;;;;;;;1.05;0.55;;;24.90;99.90;;;;;;20668472;28;20057;-80
2022/07/17 12:48:27;;;;;;;1.77;0.63;;;25.60;99.50;;;;;;20671738;28;20042;-79
2022/07/17 12:58:29;;;;;;;1.23;0.32;;;25.90;99.20;;;;;;20674203;28;20061;-80
2022/07/17 13:08:30;;;;;;;0.95;0.30;;;26.40;98.80;;;;;;20678574;28;20097;-79
2022/07/17 13:18:31;;;;;;;2.33;0.60;;;27.00;98.20;;;;;;20683888;28;20460;-79
2022/07/17 13:28:32;;;;;;;1.30;0.80;;;26.90;97.60;;;;;;20672372;28;20379;-78
2022/07/17 13:38:35;;;;;;;2.42;0.65;;;27.10;96.50;;;;;;20677042;28;20050;-79
2022/07/17 13:48:36;;;;;;;1.25;0.68;;;27.40;96.90;;;;;;20684898;28;20049;-80
2022/07/17 13:58:37;;;;;;;2.75;1.27;;;27.20;96.40;;;;;;20666997;28;20046;-79
2022/07/17 14:08:38;;;;;;;1.45;0.52;;;27.00;96.80;;;;;;20665469;28;21177;-78
2022/07/17 14:18:57;;;;;;;4.28;0.55;;;27.10;96.90;;;;;;20683468;28;20405;-80
2022/07/17 14:28:59;;;;;;;3.55;1.02;;;26.50;97.40;;;;;;20665286;28;20078;-78
2022/07/17 14:39:00;;;;;;;1.65;0.52;;;26.30;98.30;;;;;;20677041;28;20042;-79
2022/07/17 14:49:01;;;;;;;1.85;0.65;;;26.00;99.00;;;;;;20666053;28;20097;-79
2022/07/17 14:59:02;;;;;;;1.02;0.50;;;25.80;99.20;;;;;;20657302;28;20079;-79
2022/07/17 15:09:03;;;;;;;2.15;0.55;;;26.00;98.10;;;;;;20701530;28;20026;-79
2022/07/17 15:19:04;;;;;;;2.33;0.82;;;25.90;98.40;;;;;;20685796;28;20041;-78
2022/07/17 15:29:05;;;;;;;1.30;0.82;;;25.80;97.60;;;;;;20677239;28;20042;-78
2022/07/17 15:39:07;;;;;;;2.67;0.93;;;25.60;97.20;;;;;;20679886;28;20734;-79
2022/07/17 15:49:08;;;;;;;1.17;0.57;;;25.40;98.50;;;;;;20693165;28;20038;-78
2022/07/17 15:59:10;;;;;;;1.80;0.98;;;25.40;98.10;;;;;;20677838;28;20038;-79
2022/07/17 16:09:12;;;;;;;1.65;0.70;;;25.40;99.20;;;;;;20642139;28;20460;-78
2022/07/17 16:19:13;;;;;;;2.55;0.55;;;25.40;97.70;;;;;;20642195;28;21560;-78
2022/07/17 16:29:14;;;;;;;2.42;1.35;;;25.20;99.40;;;;;;20647397;28;20030;-78
2022/07/17 16:39:15;;;;;;;0.80;0.47;;;25.00;99.90;;;;;;20600938;28;20047;-78
2022/07/17 16:49:19;;;;;;;1.20;0.75;;;24.90;99.90;;;;;;20591116;28;20049;-78
2022/07/17 16:59:20;;;;;;;2.30;1.13;;;24.80;99.90;;;;;;20561297;28;20998;-78
2022/07/17 17:09:21;;;;;;;2.22;0.65;;;24.70;99.90;;;;;;20564030;28;20046;-78
2022/07/17 17:19:22;;;;;;;2.45;1.00;;;24.60;99.90;;;;;;20574774;28;20770;-78
2022/07/17 17:29:23;;;;;;;3.50;1.20;;;24.60;99.90;;;;;;20566307;28;20466;-78
2022/07/17 17:39:24;;;;;;;3.60;1.42;;;24.60;97.10;;;;;;20630693;28;20038;-77
2022/07/17 17:49:26;;;;;;;4.40;1.73;;;24.60;95.00;;;;;;20640614;28;20038;-77
2022/07/17 17:59:27;;;;;;;4.28;1.13;;;24.50;95.40;;;;;;20645887;28;20390;-83
2022/07/17 18:09:28;;;;;;;2.97;1.27;;;24.50;96.40;;;;;;20646607;28;20042;-78
2022/07/17 18:19:30;;;;;;;3.28;1.20;;;24.50;95.30;;;;;;20650564;28;20042;-79
2022/07/17 18:29:31;;;;;;;20.60;2.05;;;24.40;97.10;;;;;;20660574;28;20045;-79
2022/07/17 18:39:32;;;;;;;3.15;1.23;;;24.20;97.00;;;;;;20663574;28;21157;-79
2022/07/17 18:49:33;;;;;;;3.78;1.63;;;24.20;96.50;;;;;;20686406;28;20135;-79
2022/07/17 18:59:34;;;;;;;3.28;1.20;;;24.00;97.40;;;;;;20677758;28;20050;-78
2022/07/17 19:09:36;;;;;;;2.08;1.08;;;23.80;98.30;;;;;;20684048;28;20041;-80
2022/07/17 19:19:38;;;;;;;2.55;0.93;;;23.70;99.60;;;;;;20688032;28;20796;-80
2022/07/17 19:29:39;;;;;;;1.05;0.65;;;23.50;99.50;;;;;;20704953;28;20454;-79
2022/07/17 19:39:41;;;;;;;2.40;0.90;;;23.30;99.90;;;;;;20705824;28;20700;-79
2022/07/17 19:49:42;;;;;;;2.38;0.95;;;23.00;99.90;;;;;;20707934;28;20033;-80
2022/07/17 19:59:43;;;;;;;1.73;0.77;;;22.70;99.90;;;;;;20683377;28;20045;-79
2022/07/17 20:09:44;;;;;;;3.33;1.23;;;22.40;99.90;;;;;;20681871;28;20038;-79
2022/07/17 20:19:45;;;;;;;2.70;1.65;;;22.10;99.90;;;;;;20692150;28;20029;-79
2022/07/17 20:29:47;;;;;;;1.83;0.75;;;21.80;99.90;;;;;;20646812;28;20101;-79
2022/07/17 20:39:48;;;;;;;2.03;1.05;;;21.30;99.90;;;;;;20653250;28;20120;-80
2022/07/17 20:49:49;;;;;;;1.13;0.65;;;21.10;99.90;;;;;;20637870;28;20041;-79
2022/07/17 20:59:51;;;;;;;3.75;1.20;;;20.80;99.90;;;;;;20643834;28;20034;-79
2022/07/17 21:09:51;;;;;;;4.88;2.08;;;20.60;99.90;;;;;;20645096;28;20438;-79
2022/07/17 21:19:53;;;;;;;2.72;1.13;;;20.30;99.90;;;;;;20640033;28;20421;-79
2022/07/17 21:29:54;;;;;;;3.35;1.10;;;20.10;99.90;;;;;;20614043;28;20225;-79
2022/07/17 21:39:55;;;;;;;2.80;1.00;;;19.80;99.90;;;;;;20657139;28;20038;-80
2022/07/17 21:49:56;;;;;;;4.15;1.33;;;19.60;99.90;;;;;;20601694;28;20305;-80
2022/07/17 21:59:57;;;;;;;2.95;1.35;;;19.40;99.90;;;;;;20656264;28;20048;-80
2022/07/17 22:09:58;;;;;;;1.92;0.82;;;19.20;99.90;;;;;;20680997;28;20035;-80
2022/07/17 22:20:00;;;;;;;4.35;1.90;;;19.10;99.90;;;;;;20685432;28;20045;-80
2022/07/17 22:30:01;;;;;;;2.42;0.90;;;18.90;99.90;;;;;;20652505;28;20450;-80
2022/07/17 22:40:04;;;;;;;2.53;0.90;;;18.80;99.90;;;;;;20656513;28;20042;-80
2022/07/17 22:50:06;;;;;;;2.88;0.80;;;18.70;99.90;;;;;;20628559;28;20045;-80
2022/07/17 23:00:10;;;;;;;2.90;1.13;;;18.50;99.90;;;;;;20654553;28;20037;-80
2022/07/17 23:10:11;;;;;;;2.30;1.10;;;18.40;99.90;;;;;;20625605;28;20042;-80
2022/07/17 23:20:12;;;;;;;3.83;1.73;;;18.20;99.90;;;;;;20645904;28;20489;-80
2022/07/17 23:30:13;;;;;;;3.35;1.50;;;18.10;99.90;;;;;;20649544;28;20190;-81
2022/07/17 23:40:14;;;;;;;2.20;0.70;;;17.90;99.90;;;;;;20648242;28;20042;-80
2022/07/17 23:50:15;;;;;;;2.42;1.08;;;17.80;99.90;;;;;;20667185;28;20274;-80
